Time;durP1;ratioP1;P1;durP2;ratioP2;P2;SDS_P1;SDS_P2;PMS_P1;PMS_P2;Temp;Humidity;BMP_temperature;BMP_pressure;BME280_temperature;BME280_humidity;BME280_pressure;Samples;Min_cycle;Max_cycle;Signal;HPM_P1;HPM_P2
2020/12/31 00:01:48;;;;;;;49.03;17.83;;;;;;;3.41;100.00;96596.56;5003594;28;20088;-59
2020/12/31 00:04:13;;;;;;;48.17;18.75;;;;;;;3.63;100.00;96623.59;5004930;28;20033;-60
2020/12/31 00:06:39;;;;;;;24.20;10.27;;;;;;;3.65;100.00;96665.09;5003686;28;20484;-59
2020/12/31 00:09:04;;;;;;;30.00;10.60;;;;;;;3.52;100.00;96648.97;5005408;28;20029;-59
2020/12/31 00:11:30;;;;;;;40.28;13.43;;;;;;;3.40;100.00;96605.13;5004816;28;20037;-59
2020/12/31 00:13:58;;;;;;;35.50;12.13;;;;;;;3.63;100.00;96659.19;5005149;28;20416;-59
2020/12/31 00:16:23;;;;;;;54.45;16.23;;;;;;;3.69;100.00;96668.78;5003284;28;20088;-59
2020/12/31 00:18:49;;;;;;;38.80;18.15;;;;;;;3.67;100.00;96665.59;5005160;28;20022;-59
2020/12/31 00:21:14;;;;;;;57.60;25.85;;;;;;;3.51;100.00;96667.31;5005298;28;20030;-59
2020/12/31 00:23:40;;;;;;;54.30;26.90;;;;;;;3.39;100.00;96670.00;5005293;28;20038;-59
2020/12/31 00:26:05;;;;;;;52.08;23.23;;;;;;;3.14;100.00;96640.88;5002327;28;20041;-59
2020/12/31 00:28:30;;;;;;;45.33;22.98;;;;;;;3.36;99.54;96681.63;5003969;28;20116;-58
2020/12/31 00:30:56;;;;;;;41.42;19.45;;;;;;;3.20;100.00;96672.38;5005165;28;20038;-59
2020/12/31 00:33:21;;;;;;;44.97;19.63;;;;;;;3.10;100.00;96662.63;5005014;28;20030;-58
2020/12/31 00:35:56;;;;;;;42.55;22.00;;;;;;;3.21;100.00;96665.78;5005272;28;20049;-58
2020/12/31 00:38:23;;;;;;;46.83;21.88;;;;;;;2.76;100.00;96610.09;5005066;28;20065;-59
2020/12/31 00:40:48;;;;;;;45.67;23.63;;;;;;;3.27;100.00;96680.06;5005148;28;20495;-59
2020/12/31 00:43:14;;;;;;;53.72;24.60;;;;;;;3.37;100.00;96677.75;5003483;28;20029;-59
2020/12/31 00:45:39;;;;;;;60.90;24.35;;;;;;;3.38;100.00;96668.41;5005382;28;20499;-59
2020/12/31 00:48:04;;;;;;;53.90;24.70;;;;;;;3.36;100.00;96672.59;5005327;28;20501;-59
2020/12/31 00:50:30;;;;;;;52.63;21.38;;;;;;;3.33;100.00;96668.59;5005094;28;20099;-60
2020/12/31 00:52:55;;;;;;;201.80;93.50;;;;;;;3.03;100.00;96623.25;5003625;28;20423;-59
2020/12/31 00:55:21;;;;;;;100.13;43.95;;;;;;;3.41;100.00;96659.53;5004921;28;20480;-59
2020/12/31 00:57:46;;;;;;;80.30;36.85;;;;;;;3.40;100.00;96666.13;5004757;28;20108;-59
2020/12/31 01:00:13;;;;;;;71.20;32.78;;;;;;;3.39;100.00;96659.06;5004855;28;20396;-59
2020/12/31 01:02:39;;;;;;;71.43;33.22;;;;;;;3.24;100.00;96640.47;5020343;28;20148;-59
2020/12/31 01:05:08;;;;;;;62.70;30.70;;;;;;;3.46;100.00;96664.81;5006586;28;20038;-59
2020/12/31 01:07:34;;;;;;;55.35;27.67;;;;;;;3.46;100.00;96670.28;5008849;28;20084;-59
2020/12/31 01:09:59;;;;;;;51.17;26.77;;;;;;;3.41;100.00;96675.97;5008756;28;20452;-59
2020/12/31 01:12:25;;;;;;;55.88;25.25;;;;;;;3.02;100.00;96595.09;5008297;28;20493;-59
2020/12/31 01:14:50;;;;;;;34.85;16.00;;;;;;;2.89;100.00;96574.28;5023274;28;20527;-59
2020/12/31 01:17:16;;;;;;;30.70;16.13;;;;;;;3.39;100.00;96670.00;5006648;28;20034;-60
2020/12/31 01:19:41;;;;;;;42.40;17.48;;;;;;;3.36;100.00;96659.72;5008562;28;20080;-59
2020/12/31 01:22:07;;;;;;;32.33;14.73;;;;;;;3.22;100.00;96659.19;5008397;28;20144;-61
2020/12/31 01:24:32;;;;;;;38.17;14.90;;;;;;;3.23;100.00;96652.56;5008483;28;20556;-60
2020/12/31 01:26:58;;;;;;;31.00;14.45;;;;;;;3.28;100.00;96657.84;5008147;28;20033;-59
2020/12/31 01:29:23;;;;;;;42.47;16.40;;;;;;;3.03;100.00;96631.47;5008113;28;20140;-59
2020/12/31 01:31:49;;;;;;;33.35;14.05;;;;;;;3.13;100.00;96650.22;5007929;28;20485;-59
2020/12/31 01:34:15;;;;;;;27.38;12.20;;;;;;;3.22;100.00;96648.25;5006717;28;20467;-58
2020/12/31 01:36:40;;;;;;;23.83;10.15;;;;;;;2.95;100.00;96607.72;5007797;28;20474;-59
2020/12/31 01:39:06;;;;;;;30.48;10.60;;;;;;;3.05;100.00;96623.75;5006731;28;20030;-59
2020/12/31 01:41:31;;;;;;;37.70;14.82;;;;;;;3.16;100.00;96638.63;5007915;28;20033;-59
2020/12/31 01:44:07;;;;;;;19.70;9.07;;;;;;;3.29;100.00;96648.50;5006720;28;20030;-59
2020/12/31 01:46:35;;;;;;;23.73;7.22;;;;;;;3.34;100.00;96645.56;5006236;28;20030;-59
2020/12/31 01:49:03;;;;;;;24.38;9.18;;;;;;;3.37;100.00;96638.63;5007957;28;20112;-59
2020/12/31 01:51:30;;;;;;;25.60;11.23;;;;;;;3.38;100.00;96645.69;5007554;28;20497;-60
2020/12/31 01:53:58;;;;;;;38.03;16.08;;;;;;;2.33;100.00;96478.34;5007888;28;20056;-60
2020/12/31 01:56:28;;;;;;;41.13;20.33;;;;;;;3.29;99.46;96643.03;5022374;28;20050;-61
2020/12/31 01:58:54;;;;;;;36.88;18.20;;;;;;;3.04;99.21;96642.09;5006316;28;20120;-60
2020/12/31 02:01:21;;;;;;;31.10;14.68;;;;;;;2.77;100.00;96641.75;5007260;28;20647;-59
2020/12/31 02:03:48;;;;;;;32.03;14.13;;;;;;;2.76;100.00;96640.16;5007631;28;20041;-59
2020/12/31 02:06:14;;;;;;;31.92;14.90;;;;;;;2.23;100.00;96566.16;5007875;28;20034;-60
2020/12/31 02:08:43;;;;;;;33.40;14.93;;;;;;;2.34;100.00;96561.94;5006201;28;20133;-61
2020/12/31 02:11:09;;;;;;;38.50;16.45;;;;;;;1.84;100.00;96500.94;5007475;28;20543;-59
2020/12/31 02:13:34;;;;;;;36.13;17.27;;;;;;;2.60;100.00;96609.03;5007200;28;20072;-59
2020/12/31 02:16:01;;;;;;;33.30;17.92;;;;;;;2.75;100.00;96654.97;5007288;28;20066;-60
2020/12/31 02:18:27;;;;;;;43.67;21.05;;;;;;;2.85;100.00;96616.28;5007682;28;20034;-59
2020/12/31 02:20:54;;;;;;;49.80;23.63;;;;;;;2.87;100.00;96611.31;5007213;28;20610;-60
2020/12/31 02:23:20;;;;;;;75.65;35.45;;;;;;;2.22;100.00;96523.56;5007421;28;20512;-59
2020/12/31 02:25:46;;;;;;;56.03;27.15;;;;;;;2.78;100.00;96616.03;5007425;28;20052;-59
2020/12/31 02:28:11;;;;;;;37.55;17.75;;;;;;;2.15;100.00;96517.84;5007300;28;20564;-59
2020/12/31 02:30:36;;;;;;;32.30;15.20;;;;;;;2.59;100.00;96593.78;5007178;28;20041;-61
2020/12/31 02:33:02;;;;;;;30.95;13.38;;;;;;;2.73;100.00;96597.88;5007214;28;20186;-59
2020/12/31 02:35:27;;;;;;;21.38;8.98;;;;;;;2.07;100.00;96502.28;5006827;28;20050;-59
2020/12/31 02:37:53;;;;;;;27.80;11.25;;;;;;;2.72;100.00;96611.84;5005464;28;20488;-59
2020/12/31 02:40:19;;;;;;;34.80;11.32;;;;;;;2.23;100.00;96506.06;5006901;28;20057;-60
2020/12/31 02:42:44;;;;;;;18.63;7.82;;;;;;;2.83;100.00;96597.47;5022004;28;20069;-59
2020/12/31 02:45:09;;;;;;;31.73;9.20;;;;;;;2.88;100.00;96593.75;5006463;28;20420;-60
2020/12/31 02:47:39;;;;;;;58.67;20.33;;;;;;;2.92;100.00;96591.97;5006873;28;20037;-59
2020/12/31 02:50:04;;;;;;;33.70;8.73;;;;;;;2.96;100.00;96603.81;5006628;28;20058;-60
2020/12/31 02:52:30;;;;;;;20.58;7.88;;;;;;;2.68;100.00;96537.13;5005204;28;20068;-61
2020/12/31 02:54:55;;;;;;;24.35;10.13;;;;;;;2.85;100.00;96539.72;5006695;28;20104;-60
2020/12/31 02:57:21;;;;;;;58.75;22.27;;;;;;;3.05;100.00;96585.44;5006293;28;20061;-59
2020/12/31 02:59:46;;;;;;;69.20;23.55;;;;;;;3.03;100.00;96568.56;5021485;28;20038;-59
2020/12/31 03:02:11;;;;;;;89.60;30.27;;;;;;;3.10;100.00;96575.09;5006460;28;20025;-61
2020/12/31 03:04:37;;;;;;;174.30;57.63;;;;;;;3.00;100.00;96567.25;5005069;28;20479;-59
2020/12/31 03:07:02;;;;;;;131.35;46.85;;;;;;;3.21;100.00;96564.53;5006404;28;20118;-59
2020/12/31 03:09:28;;;;;;;43.47;19.38;;;;;;;3.14;100.00;96569.75;5006644;28;20038;-59
2020/12/31 03:11:53;;;;;;;27.55;10.70;;;;;;;3.12;100.00;96563.81;5006154;28;20394;-60
2020/12/31 03:14:18;;;;;;;29.05;12.13;;;;;;;3.07;100.00;96635.94;5004514;28;20073;-59
2020/12/31 03:16:44;;;;;;;44.45;18.58;;;;;;;3.14;100.00;96553.34;5006169;28;20028;-59
2020/12/31 03:19:09;;;;;;;41.97;19.00;;;;;;;1.52;100.00;96327.69;5006592;28;20461;-59
2020/12/31 03:21:34;;;;;;;43.83;19.52;;;;;;;2.37;100.00;96458.22;5006350;28;20076;-61
2020/12/31 03:24:00;;;;;;;33.30;16.35;;;;;;;3.04;100.00;96556.47;5005954;28;20026;-60
2020/12/31 03:26:25;;;;;;;35.72;17.20;;;;;;;2.94;100.00;96548.69;5003884;28;20037;-60
2020/12/31 03:28:51;;;;;;;48.85;21.77;;;;;;;2.86;100.00;96535.88;5005572;28;20038;-59
2020/12/31 03:31:16;;;;;;;42.70;21.17;;;;;;;2.39;100.00;96477.00;5005445;28;20033;-61
2020/12/31 03:33:41;;;;;;;45.70;22.15;;;;;;;1.92;100.00;96478.25;5021002;28;20537;-59
2020/12/31 03:36:07;;;;;;;104.38;55.55;;;;;;;2.49;100.00;96482.09;5006056;28;20030;-59
2020/12/31 03:38:32;;;;;;;52.20;25.90;;;;;;;2.34;100.00;96515.47;5005939;28;20036;-59
2020/12/31 03:40:58;;;;;;;32.03;12.75;;;;;;;2.33;100.00;96456.47;5006147;28;20779;-60
2020/12/31 03:43:23;;;;;;;36.22;14.80;;;;;;;2.98;100.00;96544.94;5005824;28;20026;-59
2020/12/31 03:45:49;;;;;;;38.35;15.05;;;;;;;2.26;100.00;96461.69;5006033;28;20042;-59
2020/12/31 03:48:14;;;;;;;36.78;16.52;;;;;;;2.83;100.00;96520.91;5006230;28;20152;-59
2020/12/31 03:50:41;;;;;;;44.22;17.33;;;;;;;2.92;100.00;96531.78;5005870;28;20180;-59
2020/12/31 03:53:07;;;;;;;35.20;12.98;;;;;;;2.84;100.00;96513.50;5020982;28;20045;-61
2020/12/31 03:55:32;;;;;;;38.17;15.77;;;;;;;2.95;100.00;96550.28;5005760;28;20033;-60
2020/12/31 03:57:58;;;;;;;37.80;15.65;;;;;;;2.49;100.00;96487.56;5004187;28;20058;-61
2020/12/31 04:00:23;;;;;;;77.05;33.88;;;;;;;2.59;100.00;96487.19;5005643;28;20581;-60
2020/12/31 04:02:49;;;;;;;59.38;25.60;;;;;;;2.59;100.00;96490.69;5005655;28;20091;-59
2020/12/31 04:05:14;;;;;;;42.65;17.33;;;;;;;2.86;100.00;96541.34;5005521;28;20061;-60
2020/12/31 04:07:39;;;;;;;45.50;19.33;;;;;;;2.83;100.00;96541.97;5005316;28;20022;-59
2020/12/31 04:10:05;;;;;;;39.78;15.02;;;;;;;2.73;100.00;96542.38;5005212;28;20037;-60
2020/12/31 04:12:30;;;;;;;30.13;13.20;;;;;;;2.80;100.00;96531.72;5005529;28;20516;-61
2020/12/31 04:14:56;;;;;;;31.42;12.73;;;;;;;2.17;100.00;96441.78;5005376;28;20686;-59
2020/12/31 04:17:21;;;;;;;25.17;10.15;;;;;;;2.85;100.00;96534.25;5020012;28;20030;-60
2020/12/31 04:19:47;;;;;;;42.78;16.40;;;;;;;2.36;100.00;96461.28;5005147;28;20042;-62
2020/12/31 04:22:12;;;;;;;34.40;16.25;;;;;;;2.70;100.00;96515.72;5005243;28;20570;-60
2020/12/31 04:24:38;;;;;;;45.10;18.48;;;;;;;2.31;100.00;96453.31;5005133;28;20049;-59
2020/12/31 04:27:03;;;;;;;54.38;23.77;;;;;;;2.82;100.00;96529.44;5005408;28;20029;-59
2020/12/31 04:29:29;;;;;;;48.90;20.33;;;;;;;2.14;100.00;96424.16;5005038;28;20144;-60
2020/12/31 04:31:54;;;;;;;66.80;28.40;;;;;;;2.37;100.00;96473.81;5004575;28;20092;-60
2020/12/31 04:34:20;;;;;;;44.92;18.35;;;;;;;2.82;100.00;96523.97;5003713;28;20041;-60
2020/12/31 04:36:45;;;;;;;46.15;19.77;;;;;;;2.03;100.00;96375.69;5004496;28;20439;-59
2020/12/31 04:39:11;;;;;;;45.55;18.30;;;;;;;2.96;100.00;96513.56;5004633;28;20030;-60
2020/12/31 04:41:36;;;;;;;48.78;17.40;;;;;;;3.00;100.00;96519.97;5004925;28;20029;-62
2020/12/31 04:44:05;;;;;;;50.33;23.30;;;;;;;2.32;100.00;96438.50;5020100;28;20491;-60
2020/12/31 04:46:31;;;;;;;44.85;20.65;;;;;;;2.82;100.00;96521.25;5003082;28;20045;-59
2020/12/31 04:49:10;;;;;;;37.92;20.42;;;;;;;2.87;100.00;96510.09;5005338;28;20029;-60
2020/12/31 04:51:36;;;;;;;59.78;26.48;;;;;;;2.75;100.00;96518.25;5004810;28;20567;-60
2020/12/31 04:54:07;;;;;;;48.42;23.60;;;;;;;2.48;100.00;96485.97;5004759;28;20092;-61
2020/12/31 04:56:37;;;;;;;37.40;17.48;;;;;;;1.45;100.00;96350.03;5004644;28;20054;-61
2020/12/31 04:59:04;;;;;;;37.08;16.58;;;;;;;2.53;100.00;96543.19;5019468;28;20026;-61
2020/12/31 05:01:30;;;;;;;30.92;15.85;;;;;;;2.54;100.00;96528.38;5019372;28;20125;-61
2020/12/31 05:03:55;;;;;;;31.25;15.93;;;;;;;2.42;100.00;96500.97;5004804;28;20026;-60
2020/12/31 05:06:23;;;;;;;43.80;20.50;;;;;;;2.48;100.00;96524.22;5003152;28;20037;-61
2020/12/31 05:08:49;;;;;;;64.43;31.55;;;;;;;2.53;100.00;96533.03;5004723;28;20033;-59
2020/12/31 05:11:14;;;;;;;63.28;35.25;;;;;;;2.64;100.00;96528.00;5002934;28;20398;-59
2020/12/31 05:13:47;;;;;;;94.97;48.03;;;;;;;2.67;100.00;96527.31;5019487;28;20033;-58
2020/12/31 05:16:13;;;;;;;89.75;44.67;;;;;;;2.70;100.00;96521.19;5003127;28;20042;-58
2020/12/31 05:18:38;;;;;;;77.90;39.35;;;;;;;2.58;100.00;96518.34;5004708;28;20497;-60
2020/12/31 05:21:15;;;;;;;96.85;51.58;;;;;;;2.11;100.00;96429.47;5004678;28;20359;-59
2020/12/31 05:23:40;;;;;;;93.50;50.38;;;;;;;2.67;100.00;96511.69;5005012;28;20108;-59
2020/12/31 05:26:06;;;;;;;71.68;37.50;;;;;;;2.72;100.00;96524.38;5004714;28;20117;-60
2020/12/31 05:28:34;;;;;;;44.95;23.02;;;;;;;2.75;100.00;96510.06;5004850;28;20516;-59
2020/12/31 05:31:02;;;;;;;46.05;22.85;;;;;;;2.64;100.00;96506.13;5004656;28;20041;-61
2020/12/31 05:33:35;;;;;;;41.95;20.17;;;;;;;2.57;100.00;96511.31;5004532;28;20519;-59
2020/12/31 05:36:16;;;;;;;43.17;20.67;;;;;;;2.59;100.00;96503.56;5004744;28;20044;-59
2020/12/31 05:38:43;;;;;;;50.08;19.02;;;;;;;2.59;100.00;96530.91;5003084;28;20040;-58
2020/12/31 05:41:10;;;;;;;47.58;20.08;;;;;;;2.62;100.00;96517.38;5004352;28;20045;-59
2020/12/31 05:43:35;;;;;;;47.55;19.92;;;;;;;2.65;100.00;96518.63;5004675;28;20034;-58
2020/12/31 05:46:09;;;;;;;46.78;19.70;;;;;;;2.68;100.00;96512.50;5004488;28;20099;-59
2020/12/31 05:48:35;;;;;;;48.90;21.33;;;;;;;2.82;100.00;96513.03;5004379;28;20030;-59
2020/12/31 05:51:19;;;;;;;47.05;20.35;;;;;;;2.73;100.00;96520.50;5004037;28;20044;-60
2020/12/31 05:53:47;;;;;;;51.13;21.45;;;;;;;2.84;100.00;96510.78;5007523;28;20065;-58
2020/12/31 05:56:15;;;;;;;48.97;22.63;;;;;;;2.20;100.00;96381.03;5005792;28;20093;-58
2020/12/31 05:58:44;;;;;;;70.43;34.58;;;;;;;3.08;100.00;96510.91;5007890;28;20112;-58
2020/12/31 06:01:12;;;;;;;90.03;36.97;;;;;;;3.03;100.00;96486.50;5007858;28;20065;-59
2020/12/31 06:03:46;;;;;;;87.55;35.72;;;;;;;3.14;100.00;96498.63;5006143;28;20032;-58
2020/12/31 06:06:16;;;;;;;115.18;43.85;;;;;;;3.01;100.00;96455.94;5007747;28;20052;-59
2020/12/31 06:08:53;;;;;;;111.40;45.78;;;;;;;3.43;100.00;96495.72;5008245;28;20076;-58
2020/12/31 06:11:29;;;;;;;119.60;52.05;;;;;;;3.29;100.00;96484.28;5007067;28;20138;-60
2020/12/31 06:13:56;;;;;;;132.20;56.75;;;;;;;3.52;100.00;96514.81;5007615;28;20522;-58
2020/12/31 06:16:25;;;;;;;127.18;59.42;;;;;;;3.38;100.00;96509.66;5007353;28;20046;-58
2020/12/31 06:19:01;;;;;;;147.00;65.82;;;;;;;3.26;100.00;96479.50;5007213;28;20033;-60
2020/12/31 06:21:57;;;;;;;227.93;102.68;;;;;;;3.80;100.00;96524.81;5006841;28;20127;-59
2020/12/31 06:24:34;;;;;;;169.75;80.60;;;;;;;3.89;100.00;96531.00;5007183;28;20038;-59
2020/12/31 06:27:13;;;;;;;156.75;78.85;;;;;;;3.96;99.60;96509.31;5007062;28;20026;-59
2020/12/31 06:29:43;;;;;;;141.70;67.78;;;;;;;3.56;99.15;96467.25;5007203;28;20044;-59
2020/12/31 06:32:30;;;;;;;116.10;57.03;;;;;;;3.90;97.69;96501.66;5006851;28;20065;-59
2020/12/31 06:35:03;;;;;;;112.95;57.15;;;;;;;3.70;97.99;96462.25;5007193;28;20044;-59
2020/12/31 06:37:30;;;;;;;170.88;85.72;;;;;;;4.03;97.23;96508.75;4661633;28;10000642;-58
2020/12/31 06:40:25;;;;;;;141.52;67.78;;;;;;;4.02;98.56;96513.44;5021766;28;20054;-58
2020/12/31 06:43:12;;;;;;;121.80;60.38;;;;;;;4.05;97.09;96511.94;5006910;28;20109;-60
2020/12/31 06:45:47;;;;;;;103.88;50.13;;;;;;;4.09;97.81;96508.19;5005168;28;20128;-61
2020/12/31 06:48:25;;;;;;;80.90;36.78;;;;;;;4.28;98.14;96504.88;5006905;28;20034;-58
2020/12/31 06:51:10;;;;;;;91.70;39.05;;;;;;;4.47;96.97;96516.06;5006359;28;20128;-62
2020/12/31 06:53:45;;;;;;;86.60;42.42;;;;;;;4.44;96.76;96487.38;5002529;28;20037;-61
2020/12/31 06:56:11;;;;;;;83.00;39.28;;;;;;;4.38;96.88;96494.25;5001875;28;20152;-61
2020/12/31 06:58:39;;;;;;;84.38;41.65;;;;;;;4.59;97.14;96503.16;4995461;28;20357;-61
2020/12/31 07:01:23;;;;;;;103.00;45.47;;;;;;;4.38;96.21;96444.91;5005741;28;20064;-62
2020/12/31 07:03:50;;;;;;;95.28;47.20;;;;;;;4.91;96.17;96508.78;5005676;28;20085;-63
2020/12/31 07:06:25;;;;;;;102.35;52.33;;;;;;;5.01;95.15;96516.56;5006469;28;20410;-62
2020/12/31 07:08:56;;;;;;;103.90;53.75;;;;;;;5.03;93.55;96478.56;5006218;28;20034;-62
2020/12/31 07:11:29;;;;;;;84.20;43.42;;;;;;;4.51;96.35;96501.31;5005715;28;20461;-62
2020/12/31 07:13:55;;;;;;;56.05;29.75;;;;;;;4.38;96.34;96488.75;5004808;28;20042;-63
2020/12/31 07:16:40;;;;;;;87.18;43.17;;;;;;;4.77;96.29;96500.13;5005744;28;20052;-62
2020/12/31 07:19:06;;;;;;;59.30;32.80;;;;;;;4.07;95.79;96417.31;5005845;28;20030;-61
2020/12/31 07:21:35;;;;;;;84.00;40.65;;;;;;;5.01;95.71;96487.13;5006277;28;20042;-62
2020/12/31 07:24:20;;;;;;;152.00;73.03;;;;;;;5.15;94.46;96500.50;5020845;28;20030;-64
2020/12/31 07:26:47;;;;;;;117.50;58.97;;;;;;;4.87;95.03;96461.25;5003899;28;20042;-61
2020/12/31 07:29:13;;;;;;;139.25;74.47;;;;;;;5.40;94.12;96480.03;5006080;28;20041;-61
2020/12/31 07:31:39;;;;;;;166.10;85.80;;;;;;;4.51;93.48;96345.03;5005131;28;20045;-61
2020/12/31 07:34:30;;;;;;;230.35;110.68;;;;;;;5.53;93.24;96484.31;5003885;28;20129;-60
2020/12/31 07:36:58;;;;;;;171.35;80.72;;;;;;;5.33;93.79;96446.84;5005743;28;20038;-63
2020/12/31 07:39:24;;;;;;;147.57;82.18;;;;;;;5.68;94.84;96480.78;5004095;28;20022;-61
2020/12/31 07:41:49;;;;;;;142.57;72.70;;;;;;;5.77;94.83;96473.97;5003419;28;20073;-61
2020/12/31 07:44:14;;;;;;;136.95;70.97;;;;;;;5.63;95.80;96472.78;5004047;28;20528;-61
2020/12/31 07:46:40;;;;;;;146.15;76.38;;;;;;;4.60;95.62;96282.59;5004840;28;20091;-62
2020/12/31 07:49:12;;;;;;;182.07;88.68;;;;;;;3.30;96.03;96097.31;5005340;28;20033;-66
2020/12/31 07:51:44;;;;;;;214.20;106.15;;;;;;;5.82;96.70;96456.44;5005079;28;20041;-60
2020/12/31 07:54:10;;;;;;;292.50;142.13;;;;;;;5.34;95.86;96368.84;5005277;28;20401;-65
2020/12/31 07:56:36;;;;;;;286.38;133.95;;;;;;;6.12;96.68;96474.09;5004796;28;20112;-60
2020/12/31 07:59:02;;;;;;;254.07;119.25;;;;;;;6.24;97.36;96470.44;5005249;28;20037;-60
2020/12/31 08:01:27;;;;;;;221.20;104.82;;;;;;;6.33;97.34;96458.13;5005130;28;20420;-60
2020/12/31 08:03:53;;;;;;;228.85;107.10;;;;;;;6.27;95.97;96437.53;5005518;28;20022;-61
2020/12/31 08:06:27;;;;;;;316.55;132.85;;;;;;;6.49;94.38;96438.81;5004835;28;20432;-61
2020/12/31 08:08:52;;;;;;;363.25;171.60;;;;;;;6.07;94.24;96356.13;5005512;28;20046;-61
2020/12/31 08:11:17;;;;;;;382.70;175.93;;;;;;;6.86;94.57;96446.34;5003348;28;20038;-61
2020/12/31 08:13:43;;;;;;;395.40;180.05;;;;;;;6.95;94.93;96463.47;5004924;28;20517;-61
2020/12/31 08:16:14;;;;;;;478.48;188.70;;;;;;;6.13;94.69;96351.97;5002975;28;20413;-63
2020/12/31 08:18:39;;;;;;;449.80;138.35;;;;;;;7.20;94.96;96453.75;4989343;28;20460;-61
2020/12/31 08:21:06;;;;;;;415.75;124.82;;;;;;;7.19;96.74;96452.13;5004478;28;20030;-63
2020/12/31 08:23:39;;;;;;;312.33;116.15;;;;;;;7.01;97.24;96403.38;5005078;28;20492;-62
2020/12/31 08:26:08;;;;;;;277.92;96.85;;;;;;;7.54;97.20;96446.53;5005000;28;20496;-62
2020/12/31 08:28:36;;;;;;;184.52;78.53;;;;;;;7.93;95.73;96436.22;5004875;28;20523;-60
2020/12/31 08:31:10;;;;;;;174.82;71.30;;;;;;;8.25;94.33;96426.53;5004712;28;20574;-61
2020/12/31 08:33:39;;;;;;;87.13;39.00;;;;;;;8.52;92.86;96430.91;5004176;28;20038;-62
2020/12/31 08:36:06;;;;;;;61.90;26.75;;;;;;;8.34;93.19;96427.06;5019437;28;20128;-60
2020/12/31 08:38:37;;;;;;;56.45;23.52;;;;;;;7.43;95.03;96253.47;5003005;28;20049;-60
2020/12/31 08:41:06;;;;;;;60.45;21.85;;;;;;;8.70;94.00;96416.19;5004855;28;20614;-62
2020/12/31 08:43:39;;;;;;;61.45;20.65;;;;;;;8.42;94.42;96334.94;5004748;28;20107;-60
2020/12/31 08:46:17;;;;;;;45.00;19.00;;;;;;;9.09;93.83;96411.16;5004928;28;20049;-60
2020/12/31 08:48:43;;;;;;;50.38;20.63;;;;;;;7.88;92.62;96185.63;5004757;28;20627;-61
2020/12/31 08:51:10;;;;;;;52.97;22.70;;;;;;;9.54;92.00;96394.31;5005003;28;20124;-60
2020/12/31 08:54:01;;;;;;;58.47;23.85;;;;;;;9.84;91.65;96392.25;5004760;28;20030;-61
2020/12/31 08:56:33;;;;;;;49.20;24.33;;;;;;;10.09;91.13;96395.25;5004218;28;20057;-61
2020/12/31 08:59:12;;;;;;;50.08;23.58;;;;;;;10.33;89.86;96378.84;5005033;28;20140;-61
2020/12/31 09:01:45;;;;;;;47.03;19.00;;;;;;;9.84;92.51;96375.66;5004367;28;20517;-61
2020/12/31 09:04:19;;;;;;;44.42;19.20;;;;;;;9.79;95.41;96362.16;5004813;28;20080;-60
2020/12/31 09:06:46;;;;;;;41.92;20.17;;;;;;;10.10;94.33;96361.66;5004371;28;20060;-61
2020/12/31 09:09:23;;;;;;;46.67;19.42;;;;;;;10.39;93.53;96357.91;5019431;28;20072;-62
2020/12/31 09:12:03;;;;;;;40.60;17.60;;;;;;;10.83;91.95;96354.22;5004482;28;20026;-62
2020/12/31 09:14:33;;;;;;;37.00;18.92;;;;;;;10.46;93.96;96308.13;5004650;28;20308;-61
2020/12/31 09:16:59;;;;;;;32.53;16.42;;;;;;;10.75;92.75;96333.22;5004392;28;20168;-61
2020/12/31 09:19:25;;;;;;;35.25;16.27;;;;;;;10.51;96.66;96357.59;5004341;28;20255;-61
2020/12/31 09:21:52;;;;;;;38.53;17.35;;;;;;;10.73;96.54;96351.00;5004179;28;20333;-61
2020/12/31 09:24:23;;;;;;;38.45;21.75;;;;;;;10.13;94.66;96230.06;5019378;28;20041;-61
2020/12/31 09:26:59;;;;;;;45.28;22.55;;;;;;;10.58;93.94;96321.66;5007234;28;20248;-62
2020/12/31 09:29:26;;;;;;;34.72;20.85;;;;;;;10.62;96.20;96300.28;5008111;28;20038;-61
2020/12/31 09:31:52;;;;;;;38.20;20.05;;;;;;;11.04;95.60;96329.34;5007672;28;20437;-63
2020/12/31 09:34:18;;;;;;;44.15;21.75;;;;;;;10.53;94.24;96213.22;5008024;28;20500;-62
2020/12/31 09:36:43;;;;;;;37.10;18.27;;;;;;;10.47;93.50;96210.06;5007719;28;20034;-61
2020/12/31 09:39:09;;;;;;;39.35;20.15;;;;;;;11.95;91.96;96332.31;5006369;28;20042;-62
2020/12/31 09:41:35;;;;;;;36.60;17.67;;;;;;;12.12;89.64;96320.44;5006400;28;20512;-62
2020/12/31 09:44:01;;;;;;;34.25;16.95;;;;;;;12.36;88.21;96308.50;5007550;28;20492;-62
2020/12/31 09:46:26;;;;;;;27.73;16.85;;;;;;;12.63;87.36;96317.97;5007720;28;20131;-62
2020/12/31 09:48:52;;;;;;;88.53;35.45;;;;;;;12.54;88.61;96281.47;5006364;28;20041;-61
2020/12/31 09:51:21;;;;;;;33.35;13.65;;;;;;;13.16;86.27;96290.78;5007907;28;20034;-62
2020/12/31 09:53:53;;;;;;;25.58;10.13;;;;;;;12.70;84.95;96178.22;5022737;28;20137;-62
2020/12/31 09:56:27;;;;;;;26.50;10.25;;;;;;;13.46;84.56;96288.22;5020206;28;20041;-61
2020/12/31 09:58:52;;;;;;;24.40;8.52;;;;;;;12.71;84.38;96190.94;5008495;28;20053;-65
2020/12/31 10:01:19;;;;;;;23.65;9.52;;;;;;;13.45;83.30;96286.63;5005995;28;20127;-63
2020/12/31 10:03:45;;;;;;;20.63;9.70;;;;;;;13.40;83.29;96284.28;5007043;28;20045;-63
2020/12/31 10:06:10;;;;;;;25.23;14.43;;;;;;;13.49;83.71;96270.72;5006735;28;21697;-61
2020/12/31 10:08:36;;;;;;;98.78;62.83;;;;;;;13.62;84.54;96274.59;5005525;28;20128;-61
2020/12/31 10:11:02;;;;;;;40.65;24.17;;;;;;;13.65;84.03;96284.94;4987614;28;20532;-61
2020/12/31 10:13:28;;;;;;;27.15;15.13;;;;;;;13.18;83.04;96220.88;4987780;28;20387;-59
2020/12/31 10:15:53;;;;;;;54.70;42.75;;;;;;;13.60;84.00;96271.44;4995086;28;20065;-61
2020/12/31 10:18:19;;;;;;;30.33;19.58;;;;;;;13.66;82.39;96264.22;5006356;28;20040;-62
2020/12/31 10:20:44;;;;;;;23.35;13.38;;;;;;;13.47;83.14;96245.28;5005055;28;20373;-61
2020/12/31 10:23:10;;;;;;;21.63;13.52;;;;;;;13.47;82.31;96225.81;5007357;28;20061;-61
2020/12/31 10:25:35;;;;;;;25.85;12.27;;;;;;;12.98;82.96;96162.16;5006663;28;20062;-60
2020/12/31 10:28:01;;;;;;;28.60;13.88;;;;;;;13.40;81.58;96223.06;5007223;28;20084;-59
2020/12/31 10:30:26;;;;;;;28.13;11.25;;;;;;;13.48;82.28;96235.72;5005970;28;20501;-61
2020/12/31 10:32:52;;;;;;;26.17;13.40;;;;;;;13.09;82.48;96184.34;5005992;28;20045;-60
2020/12/31 10:35:17;;;;;;;31.45;13.85;;;;;;;13.36;82.78;96227.88;5005222;28;20041;-60
2020/12/31 10:37:42;;;;;;;24.48;9.63;;;;;;;12.39;83.22;96091.09;5006259;28;20084;-63
2020/12/31 10:40:08;;;;;;;28.55;11.70;;;;;;;13.35;83.33;96215.19;5006316;28;20038;-62
2020/12/31 10:42:33;;;;;;;19.45;10.15;;;;;;;13.44;83.80;96218.28;5007378;28;20519;-60
2020/12/31 10:44:59;;;;;;;23.35;8.82;;;;;;;13.40;83.44;96217.50;5006583;28;20044;-61
2020/12/31 10:47:24;;;;;;;17.38;7.10;;;;;;;13.36;84.11;96215.97;5006470;28;20041;-62
2020/12/31 10:49:50;;;;;;;22.20;8.30;;;;;;;13.23;83.52;96185.06;5006188;28;20069;-63
2020/12/31 10:52:16;;;;;;;25.70;8.07;;;;;;;13.35;83.18;96206.84;5005732;28;20034;-62
2020/12/31 10:54:43;;;;;;;18.13;7.72;;;;;;;13.43;83.33;96208.38;5004067;28;20053;-60
2020/12/31 10:57:09;;;;;;;12.60;5.90;;;;;;;13.58;82.54;96195.91;5005987;28;20057;-63
2020/12/31 10:59:35;;;;;;;20.55;7.55;;;;;;;13.44;81.67;96128.47;5006519;28;20480;-62
2020/12/31 11:02:00;;;;;;;24.02;8.63;;;;;;;14.20;80.65;96186.56;5005620;28;20421;-62
2020/12/31 11:04:25;;;;;;;23.08;8.63;;;;;;;14.28;79.45;96183.34;5005747;28;20073;-62
2020/12/31 11:06:51;;;;;;;18.13;5.90;;;;;;;14.25;78.69;96183.38;5006174;28;20036;-63
2020/12/31 11:09:16;;;;;;;13.98;6.43;;;;;;;11.99;77.59;95822.47;5006133;28;20033;-64
2020/12/31 11:11:42;;;;;;;15.90;7.00;;;;;;;13.93;77.75;96127.19;5003970;28;20048;-62
2020/12/31 11:14:08;;;;;;;38.30;19.30;;;;;;;14.31;78.05;96176.94;5006121;28;20132;-64
2020/12/31 11:16:34;;;;;;;60.90;28.02;;;;;;;14.25;77.36;96167.44;5005159;28;20042;-64
2020/12/31 11:18:59;;;;;;;79.80;36.45;;;;;;;14.08;77.35;96162.84;5005475;28;20563;-60
2020/12/31 11:21:25;;;;;;;83.78;42.22;;;;;;;14.17;76.95;96165.13;5003255;28;20044;-61